Time;durP1;ratioP1;P1;durP2;ratioP2;P2;SDS_P1;SDS_P2;PMS_P1;PMS_P2;Temp;Humidity;BMP_temperature;BMP_pressure;BME280_temperature;BME280_humidity;BME280_pressure;Samples;Min_cycle;Max_cycle;Signal;HPM_P1;HPM_P2
2023/06/27 00:00:10;;;;;;;3.05;0.85;;;;;;;16.88;52.56;100705.78;5003320;28;20621;-42
2023/06/27 00:02:38;;;;;;;4.90;1.27;;;;;;;16.89;52.49;100706.66;5011827;28;20064;-42
2023/06/27 00:05:05;;;;;;;5.05;1.33;;;;;;;16.88;52.96;100703.16;5008175;28;20535;-41
2023/06/27 00:07:31;;;;;;;6.80;0.95;;;;;;;16.85;52.72;100708.44;5005926;28;20477;-42
2023/06/27 00:09:58;;;;;;;8.13;1.20;;;;;;;16.83;52.67;100718.94;5000986;28;20260;-42
2023/06/27 00:12:25;;;;;;;3.90;1.05;;;;;;;16.80;53.00;100713.78;5009487;28;20133;-42
2023/06/27 00:14:54;;;;;;;2.35;0.60;;;;;;;16.78;52.54;100709.44;5008087;28;20178;-41
2023/06/27 00:17:23;;;;;;;3.45;0.70;;;;;;;16.76;52.76;100716.47;5004209;28;20041;-42
2023/06/27 00:19:49;;;;;;;2.70;0.70;;;;;;;16.72;52.77;100715.66;5011422;28;20049;-43
2023/06/27 00:22:16;;;;;;;3.25;0.98;;;;;;;16.68;53.08;100709.63;5015682;28;20052;-41
2023/06/27 00:24:43;;;;;;;5.00;0.80;;;;;;;16.65;53.53;100709.69;5003320;28;20056;-41
2023/06/27 00:27:09;;;;;;;6.88;0.93;;;;;;;16.62;53.57;100701.88;5008975;28;20057;-42
2023/06/27 00:29:36;;;;;;;4.25;1.10;;;;;;;16.58;53.23;100698.47;5010122;28;20046;-42
2023/06/27 00:32:03;;;;;;;4.13;0.52;;;;;;;16.56;52.93;100683.69;5008532;28;20103;-42
2023/06/27 00:34:29;;;;;;;5.93;0.88;;;;;;;16.54;53.32;100669.78;5010782;28;20041;-41
2023/06/27 00:36:56;;;;;;;3.80;0.65;;;;;;;16.52;53.57;100672.41;5003687;28;20058;-42
2023/06/27 00:39:23;;;;;;;4.55;1.38;;;;;;;16.50;53.59;100668.09;5012285;28;20054;-42
2023/06/27 00:41:51;;;;;;;3.65;0.98;;;;;;;16.50;53.61;100678.56;5006880;28;20068;-44
2023/06/27 00:44:18;;;;;;;4.20;1.40;;;;;;;16.47;53.60;100681.22;5004144;28;20053;-41
2023/06/27 00:46:47;;;;;;;5.00;0.95;;;;;;;16.44;53.38;100680.41;5000510;28;20108;-42
2023/06/27 00:49:17;;;;;;;5.68;1.13;;;;;;;16.40;53.91;100683.97;5004098;28;20104;-41
2023/06/27 00:51:47;;;;;;;5.10;0.90;;;;;;;16.35;53.84;100683.16;5014141;28;20068;-42
2023/06/27 00:54:15;;;;;;;;;;;;;;;16.11;54.51;100682.66;5011429;28;20077;-41
2023/06/27 00:56:41;;;;;;;4.80;0.93;;;;;;;16.25;53.55;100684.22;5004893;28;20288;-41
2023/06/27 00:59:09;;;;;;;4.18;1.17;;;;;;;16.23;54.03;100692.06;5005374;28;20543;-41
2023/06/27 01:01:36;;;;;;;5.07;0.93;;;;;;;16.22;54.01;100694.72;5011961;28;20053;-41
2023/06/27 01:04:04;;;;;;;4.18;1.20;;;;;;;16.18;54.05;100684.31;5003887;28;20053;-42
2023/06/27 01:06:37;;;;;;;3.83;1.00;;;;;;;16.17;54.09;100685.19;5010905;28;20120;-40
2023/06/27 01:09:12;;;;;;;2.25;1.10;;;;;;;16.12;54.21;100689.66;5002040;28;20778;-41
2023/06/27 01:11:44;;;;;;;4.50;1.27;;;;;;;16.10;54.28;100696.63;5007453;28;20041;-41
2023/06/27 01:14:16;;;;;;;2.90;0.73;;;;;;;16.08;54.60;100693.19;5003665;28;20050;-41
2023/06/27 01:16:45;;;;;;;3.58;1.00;;;;;;;16.03;54.26;100690.66;5006114;28;20053;-40
2023/06/27 01:19:13;;;;;;;2.75;1.00;;;;;;;15.96;54.26;100694.22;5011149;28;20054;-42
2023/06/27 01:21:41;;;;;;;6.53;1.65;;;;;;;15.89;54.31;100688.22;5007691;28;20458;-40
2023/06/27 01:24:08;;;;;;;6.85;1.08;;;;;;;15.84;54.56;100690.00;5006920;28;20107;-49
2023/06/27 01:26:35;;;;;;;3.47;0.95;;;;;;;15.79;54.69;100686.59;5014127;28;20666;-41
2023/06/27 01:29:01;;;;;;;3.28;0.93;;;;;;;15.74;54.54;100689.28;5012722;28;20049;-41
2023/06/27 01:36:56;;;;;;;4.65;0.98;;;;;;;15.63;54.72;100694.66;5055883;28;20402;-40
2023/06/27 01:39:32;;;;;;;3.38;1.08;;;;;;;15.57;55.11;100697.34;5001881;28;20206;-41
2023/06/27 01:42:07;;;;;;;4.22;0.95;;;;;;;15.51;55.59;100693.06;4997735;28;20058;-40
2023/06/27 01:44:35;;;;;;;4.53;0.90;;;;;;;15.46;55.56;100696.59;5001586;28;20545;-40
2023/06/27 01:47:02;;;;;;;6.60;1.13;;;;;;;15.42;55.53;100683.63;4999342;28;20046;-41
2023/06/27 01:49:28;;;;;;;5.65;1.67;;;;;;;15.38;55.57;100676.72;5001257;28;20145;-40
2023/06/27 01:51:56;;;;;;;1.88;1.00;;;;;;;15.37;56.03;100679.34;4997749;28;20050;-42
2023/06/27 01:54:22;;;;;;;6.53;1.23;;;;;;;15.37;55.85;100679.34;4994704;28;20053;-40
2023/06/27 01:56:49;;;;;;;4.30;0.85;;;;;;;15.38;55.89;100679.31;4999600;28;20085;-41
2023/06/27 01:59:16;;;;;;;7.90;1.50;;;;;;;15.38;56.02;100679.31;5000424;28;20046;-41
2023/06/27 02:01:42;;;;;;;4.63;1.10;;;;;;;15.39;55.80;100682.78;4999048;28;20501;-40
2023/06/27 02:04:09;;;;;;;4.22;2.28;;;;;;;15.38;56.56;100681.06;4996669;28;20096;-40
2023/06/27 02:06:36;;;;;;;6.78;1.00;;;;;;;15.37;56.40;100684.56;5000246;28;20481;-41
2023/06/27 02:09:03;;;;;;;3.00;1.50;;;;;;;15.37;56.02;100689.78;4992636;28;20042;-40
2023/06/27 02:11:30;;;;;;;3.90;1.65;;;;;;;15.35;55.87;100687.19;4995170;28;20046;-40
2023/06/27 02:13:56;;;;;;;3.35;1.17;;;;;;;15.34;56.46;100688.06;4997311;28;20069;-41
2023/06/27 02:16:23;;;;;;;6.50;2.03;;;;;;;15.30;55.91;100683.75;4997897;28;20038;-42
2023/06/27 02:18:50;;;;;;;15.88;1.52;;;;;;;15.26;55.97;100676.84;4994934;28;20055;-40
2023/06/27 02:21:17;;;;;;;4.82;1.70;;;;;;;15.23;55.74;100679.50;4998741;28;20046;-40
2023/06/27 02:23:43;;;;;;;5.65;0.93;;;;;;;15.19;56.24;100683.03;4998638;28;20050;-41
2023/06/27 02:26:10;;;;;;;4.28;0.77;;;;;;;15.14;56.15;100678.72;4997103;28;20060;-40
2023/06/27 02:28:37;;;;;;;3.70;0.90;;;;;;;15.10;56.68;100677.03;5001008;28;20049;-41
2023/06/27 02:31:04;;;;;;;7.88;1.55;;;;;;;15.08;56.44;100677.91;4994116;28;20050;-40
2023/06/27 02:33:30;;;;;;;4.88;0.90;;;;;;;15.05;56.41;100668.41;5000154;28;20461;-41
2023/06/27 02:35:57;;;;;;;4.28;1.15;;;;;;;15.03;56.26;100673.63;4999626;28;20046;-41
2023/06/27 02:38:23;;;;;;;4.47;1.08;;;;;;;15.02;56.68;100671.91;4998924;28;20046;-41
2023/06/27 02:40:50;;;;;;;2.83;1.10;;;;;;;15.00;56.67;100676.25;4997680;28;20054;-41
2023/06/27 02:43:17;;;;;;;5.68;1.10;;;;;;;14.98;56.86;100677.16;4997508;28;20208;-41
2023/06/27 02:45:44;;;;;;;8.35;1.17;;;;;;;14.95;56.33;100671.97;4993989;28;20050;-41
2023/06/27 02:48:10;;;;;;;6.20;1.10;;;;;;;14.93;56.88;100673.75;4984022;28;20070;-40
2023/06/27 02:50:37;;;;;;;4.00;1.02;;;;;;;14.92;56.69;100677.25;4984402;28;20081;-41
2023/06/27 02:53:03;;;;;;;5.43;1.20;;;;;;;14.86;56.31;100668.59;4984650;28;20202;-41
2023/06/27 02:55:30;;;;;;;4.47;1.20;;;;;;;14.83;56.48;100670.38;4984264;28;20662;-40
2023/06/27 02:57:57;;;;;;;4.05;1.02;;;;;;;14.80;57.08;100668.69;4984464;28;20610;-40
2023/06/27 03:00:23;;;;;;;3.58;1.33;;;;;;;14.76;56.53;100669.56;4982852;28;20042;-41
2023/06/27 03:02:50;;;;;;;4.38;0.85;;;;;;;14.74;57.09;100673.91;4985151;28;20068;-41
2023/06/27 03:05:16;;;;;;;3.75;1.10;;;;;;;14.72;56.87;100673.03;4986674;28;20050;-41
2023/06/27 03:07:43;;;;;;;2.50;0.80;;;;;;;14.68;57.12;100679.16;4985182;28;20494;-41
2023/06/27 03:10:10;;;;;;;5.78;1.20;;;;;;;14.68;57.56;100679.16;4978252;28;20058;-41
2023/06/27 03:12:37;;;;;;;6.32;0.90;;;;;;;14.65;57.42;100674.84;4974938;28;20101;-41
2023/06/27 03:15:04;;;;;;;7.05;0.85;;;;;;;14.62;57.71;100665.31;4983632;28;20080;-41
2023/06/27 03:17:31;;;;;;;8.93;1.27;;;;;;;14.61;57.37;100647.09;4985138;28;20050;-40
2023/06/27 03:19:58;;;;;;;4.57;1.00;;;;;;;14.59;57.59;100644.50;4976549;28;20046;-42
2023/06/27 03:22:24;;;;;;;4.75;0.98;;;;;;;14.60;57.60;100650.59;4975057;28;20051;-40
2023/06/27 03:24:51;;;;;;;13.60;2.55;;;;;;;14.58;57.55;100653.19;4984631;28;20651;-41
2023/06/27 03:27:23;;;;;;;4.07;0.90;;;;;;;14.57;57.76;100669.72;4981319;28;20495;-40
2023/06/27 03:29:50;;;;;;;4.65;1.05;;;;;;;14.56;57.85;100675.81;4979787;28;20046;-41
2023/06/27 03:32:17;;;;;;;7.22;1.05;;;;;;;14.56;58.01;100680.16;4980624;28;20042;-42
2023/06/27 03:34:44;;;;;;;5.55;0.98;;;;;;;14.54;57.72;100682.78;4985078;28;20058;-41
2023/06/27 03:37:10;;;;;;;6.50;1.17;;;;;;;14.54;58.52;100685.41;4976565;28;20054;-42
2023/06/27 03:39:38;;;;;;;4.38;0.95;;;;;;;14.53;58.73;100681.91;4982090;28;20052;-41
2023/06/27 03:42:05;;;;;;;3.67;1.13;;;;;;;14.53;58.42;100683.66;4983343;28;20069;-42
2023/06/27 03:44:33;;;;;;;9.55;1.13;;;;;;;14.51;58.12;100673.25;4980074;28;20054;-41
2023/06/27 03:47:00;;;;;;;5.93;1.15;;;;;;;14.51;59.09;100683.69;4985421;28;20450;-42
2023/06/27 03:49:27;;;;;;;4.68;0.80;;;;;;;14.50;58.07;100681.09;4980832;28;20058;-40
2023/06/27 03:51:55;;;;;;;5.47;0.85;;;;;;;14.51;58.62;100672.38;4983202;28;20058;-42
2023/06/27 03:54:21;;;;;;;5.78;0.98;;;;;;;14.50;59.08;100671.53;4975073;28;20058;-49
2023/06/27 03:56:48;;;;;;;4.45;1.23;;;;;;;14.52;58.91;100666.28;4984448;28;20052;-41
2023/06/27 03:59:15;;;;;;;7.45;1.00;;;;;;;14.53;58.75;100670.63;4979304;28;20058;-42
2023/06/27 04:01:42;;;;;;;4.00;1.00;;;;;;;14.54;58.44;100664.53;4981069;28;20058;-41
2023/06/27 04:04:08;;;;;;;2.40;0.65;;;;;;;14.56;58.89;100670.59;4980380;28;20055;-42
2023/06/27 04:06:40;;;;;;;4.25;0.57;;;;;;;14.56;59.27;100670.59;4984811;28;20046;-41
2023/06/27 04:09:07;;;;;;;5.22;0.93;;;;;;;14.56;58.58;100670.59;4986974;28;20517;-42
2023/06/27 04:11:33;;;;;;;5.60;0.93;;;;;;;14.55;58.78;100674.06;4982647;28;20118;-41
2023/06/27 04:14:00;;;;;;;5.47;1.20;;;;;;;14.55;59.22;100668.88;4982174;28;20465;-42
2023/06/27 04:16:27;;;;;;;5.32;0.85;;;;;;;14.55;58.99;100673.22;4983511;28;20564;-41
2023/06/27 04:18:54;;;;;;;4.47;1.00;;;;;;;14.54;58.49;100677.56;4981749;28;20050;-42
2023/06/27 04:21:22;;;;;;;4.53;0.73;;;;;;;14.54;59.27;100682.78;4977110;28;20129;-40
2023/06/27 04:23:50;;;;;;;4.70;1.05;;;;;;;14.55;58.89;100679.28;4983377;28;20081;-42
2023/06/27 04:26:17;;;;;;;3.20;0.80;;;;;;;14.53;59.65;100673.25;4975466;28;20058;-41
2023/06/27 04:28:46;;;;;;;5.40;1.20;;;;;;;14.54;58.84;100669.75;4973891;28;20462;-41
2023/06/27 04:31:13;;;;;;;3.45;0.85;;;;;;;14.54;58.88;100667.16;4974984;28;20112;-41
2023/06/27 04:33:41;;;;;;;2.55;0.80;;;;;;;14.57;59.31;100664.53;4978113;28;20141;-42
2023/06/27 04:36:09;;;;;;;2.95;0.80;;;;;;;14.58;59.42;100658.41;4965506;28;20050;-42
2023/06/27 04:38:38;;;;;;;4.35;1.33;;;;;;;14.61;59.38;100660.13;4985163;28;20045;-40
2023/06/27 04:41:06;;;;;;;5.43;0.98;;;;;;;14.62;59.42;100665.31;4974599;28;20525;-41
2023/06/27 04:43:34;;;;;;;3.00;0.93;;;;;;;14.64;59.21;100662.72;4975101;28;20054;-42
2023/06/27 04:46:03;;;;;;;3.05;0.68;;;;;;;14.67;59.54;100656.59;4970239;28;20054;-41
2023/06/27 04:48:30;;;;;;;5.63;0.88;;;;;;;14.69;59.55;100654.84;4974895;28;20054;-41
2023/06/27 04:50:57;;;;;;;4.70;0.68;;;;;;;14.71;59.81;100647.84;4972113;28;20046;-42
2023/06/27 04:53:26;;;;;;;4.45;0.95;;;;;;;14.72;60.03;100645.25;4973204;28;20053;-42
2023/06/27 04:55:53;;;;;;;10.75;1.67;;;;;;;14.74;59.93;100653.06;4973140;28;20085;-40
2023/06/27 04:58:20;;;;;;;3.45;1.10;;;;;;;14.76;59.97;100648.69;4972509;28;20047;-41
2023/06/27 05:00:47;;;;;;;6.35;1.00;;;;;;;14.81;59.81;100654.75;4975797;28;20050;-42
2023/06/27 05:03:15;;;;;;;5.70;1.10;;;;;;;14.87;59.81;100654.69;4975593;28;20051;-42
2023/06/27 05:05:42;;;;;;;4.47;0.90;;;;;;;14.92;60.07;100656.38;4972324;28;20058;-41
2023/06/27 05:08:09;;;;;;;6.03;0.93;;;;;;;14.96;60.17;100664.13;4973932;28;20078;-41
2023/06/27 05:10:36;;;;;;;5.50;0.90;;;;;;;15.02;60.22;100674.50;4965250;28;20054;-42
2023/06/27 05:13:03;;;;;;;3.83;0.88;;;;;;;15.05;60.00;100673.63;4972163;28;20046;-41
2023/06/27 05:15:30;;;;;;;7.13;0.93;;;;;;;15.08;60.08;100673.59;4975773;28;20054;-42
2023/06/27 05:20:48;;;;;;;6.55;1.67;;;;;;;15.55;61.34;100673.00;4988846;28;20417;-42
2023/06/27 05:23:15;;;;;;;4.35;2.33;;;;;;;15.35;60.93;100668.03;4955618;28;20046;-42
2023/06/27 05:25:42;;;;;;;3.63;1.85;;;;;;;15.35;61.26;100676.75;4956694;28;20143;-42
2023/06/27 05:28:09;;;;;;;7.28;1.15;;;;;;;15.37;60.54;100667.13;4966604;28;20414;-43
2023/06/27 05:30:35;;;;;;;6.10;2.03;;;;;;;15.41;61.50;100671.44;4964618;28;20043;-43
2023/06/27 05:33:02;;;;;;;5.53;1.15;;;;;;;15.44;60.87;100669.69;4973021;28;20459;-41
2023/06/27 05:35:29;;;;;;;5.90;2.92;;;;;;;15.47;61.20;100664.41;4982442;28;20050;-41
2023/06/27 05:37:58;;;;;;;5.78;2.13;;;;;;;15.53;61.54;100669.53;4983503;28;20054;-43
2023/06/27 05:40:24;;;;;;;5.63;2.92;;;;;;;15.57;61.40;100665.16;4977467;28;20054;-42
2023/06/27 05:42:51;;;;;;;5.47;2.63;;;;;;;15.64;61.49;100667.66;4981304;28;20050;-42
2023/06/27 05:45:18;;;;;;;5.85;2.33;;;;;;;15.73;61.56;100665.78;4974316;28;20057;-42
2023/06/27 05:47:44;;;;;;;5.53;2.22;;;;;;;15.87;61.62;100669.06;4982377;28;20533;-41
2023/06/27 05:50:11;;;;;;;5.50;2.38;;;;;;;16.00;61.31;100654.09;4980798;28;20138;-41
2023/06/27 05:52:38;;;;;;;8.80;2.40;;;;;;;16.12;61.65;100645.22;4982026;28;20066;-42
2023/06/27 05:55:05;;;;;;;6.75;2.38;;;;;;;16.22;61.05;100656.38;4982600;28;20043;-42
2023/06/27 05:57:31;;;;;;;7.75;3.05;;;;;;;16.33;61.46;100650.97;4979131;28;20054;-43
2023/06/27 05:59:58;;;;;;;4.05;2.55;;;;;;;16.41;61.00;100649.09;4973884;28;20043;-41
2023/06/27 06:02:25;;;;;;;6.50;3.05;;;;;;;16.50;61.30;100657.66;4974519;28;20042;-42
2023/06/27 06:04:54;;;;;;;6.22;2.80;;;;;;;16.56;61.01;100665.41;4972943;28;20062;-41
2023/06/27 06:07:20;;;;;;;5.38;2.60;;;;;;;16.61;61.02;100660.09;4974439;28;20058;-41
2023/06/27 06:09:47;;;;;;;6.32;2.28;;;;;;;16.65;60.91;100662.59;4978167;28;20121;-40
2023/06/27 06:12:14;;;;;;;8.35;2.20;;;;;;;16.72;60.91;100659.88;4979292;28;20045;-41
2023/06/27 06:14:40;;;;;;;5.82;2.55;;;;;;;16.78;60.92;100660.63;4972286;28;20050;-42
2023/06/27 06:17:07;;;;;;;9.90;3.13;;;;;;;16.83;60.77;100656.16;4975665;28;20047;-42
2023/06/27 06:19:34;;;;;;;5.07;2.47;;;;;;;16.87;60.87;100656.97;4979537;28;20051;-41
2023/06/27 06:22:00;;;;;;;9.23;2.28;;;;;;;16.95;61.08;100662.03;4978317;28;20054;-40
2023/06/27 06:24:27;;;;;;;8.45;2.38;;;;;;;17.02;61.28;100668.03;4979730;28;21334;-40
2023/06/27 06:26:54;;;;;;;5.35;2.78;;;;;;;17.10;60.98;100660.94;4976653;28;20054;-41
2023/06/27 06:29:20;;;;;;;6.65;2.08;;;;;;;17.20;60.94;100654.59;4980777;28;20065;-41
2023/06/27 06:31:47;;;;;;;4.70;2.45;;;;;;;17.26;60.34;100650.16;4970184;28;20529;-41
2023/06/27 06:34:14;;;;;;;6.78;1.33;;;;;;;17.32;60.86;100655.22;4966406;28;20391;-41
2023/06/27 06:36:41;;;;;;;6.65;1.67;;;;;;;17.34;61.05;100661.31;4966855;28;20396;-41
2023/06/27 06:39:07;;;;;;;4.60;2.75;;;;;;;17.37;60.24;100674.34;4963119;28;20039;-42
2023/06/27 06:41:34;;;;;;;6.57;2.97;;;;;;;17.41;60.15;100694.34;4965855;28;20069;-41
2023/06/27 06:44:01;;;;;;;5.45;2.95;;;;;;;17.43;60.33;100687.28;4962236;28;20046;-41
2023/06/27 06:46:27;;;;;;;8.00;2.50;;;;;;;17.47;60.43;100694.19;4962544;28;20058;-42
2023/06/27 06:48:54;;;;;;;4.95;2.75;;;;;;;17.51;60.42;100688.88;4963878;28;20522;-43
2023/06/27 06:51:23;;;;;;;5.15;2.30;;;;;;;17.53;60.64;100693.19;4963668;28;20059;-42
2023/06/27 06:53:49;;;;;;;7.30;2.65;;;;;;;17.57;60.18;100688.75;4966006;28;20054;-41
2023/06/27 06:56:16;;;;;;;4.85;1.30;;;;;;;17.60;60.83;100684.31;4964864;28;20410;-41
2023/06/27 06:58:43;;;;;;;6.10;2.63;;;;;;;17.63;60.30;100672.06;4962042;28;20058;-40
2023/06/27 07:01:09;;;;;;;6.53;2.42;;;;;;;17.66;60.90;100667.59;4961412;28;20159;-40
2023/06/27 07:03:36;;;;;;;8.52;2.45;;;;;;;17.68;60.91;100665.81;4965646;28;20132;-41
2023/06/27 07:06:03;;;;;;;6.88;2.42;;;;;;;17.71;60.71;100686.72;4966855;28;20058;-41
2023/06/27 07:08:30;;;;;;;5.57;2.50;;;;;;;17.72;60.79;100691.03;4964050;28;20051;-41
2023/06/27 07:10:57;;;;;;;8.75;2.40;;;;;;;17.76;61.00;100693.59;4964026;28;20077;-40
2023/06/27 07:13:23;;;;;;;8.23;3.25;;;;;;;17.80;60.37;100687.41;4962194;28;20069;-41
2023/06/27 07:15:50;;;;;;;8.85;1.38;;;;;;;17.86;60.55;100684.63;4964746;28;20427;-41
2023/06/27 07:18:17;;;;;;;8.25;2.53;;;;;;;17.92;60.75;100684.50;4960939;28;20051;-41
2023/06/27 07:20:43;;;;;;;3.90;2.25;;;;;;;17.97;60.98;100682.59;4964477;28;20051;-41
2023/06/27 07:23:10;;;;;;;9.57;2.33;;;;;;;18.04;60.09;100690.34;4964112;28;20085;-41
2023/06/27 07:25:38;;;;;;;4.80;3.10;;;;;;;18.09;60.97;100688.50;4968205;28;20059;-40
2023/06/27 07:28:07;;;;;;;4.75;2.33;;;;;;;18.13;60.48;100697.16;4967266;28;20573;-41
2023/06/27 07:30:34;;;;;;;9.15;2.33;;;;;;;18.19;60.21;100691.75;4960962;28;20098;-42
2023/06/27 07:33:00;;;;;;;5.15;2.55;;;;;;;18.23;59.68;100693.41;4960486;28;20050;-40
2023/06/27 07:35:29;;;;;;;6.40;2.88;;;;;;;18.31;60.42;100695.84;4963857;28;20061;-41
2023/06/27 07:37:56;;;;;;;6.90;2.58;;;;;;;18.39;60.83;100693.00;4957431;28;20057;-41
2023/06/27 07:40:22;;;;;;;9.88;2.92;;;;;;;18.45;60.24;100693.75;4962893;28;20066;-42
2023/06/27 07:42:49;;;;;;;11.35;3.08;;;;;;;18.52;60.65;100698.81;4958171;28;20062;-41
2023/06/27 07:45:16;;;;;;;6.88;2.63;;;;;;;18.58;61.01;100699.50;4960577;28;20082;-42
2023/06/27 07:47:42;;;;;;;7.57;2.50;;;;;;;18.70;61.30;100703.59;4961574;28;20066;-41
2023/06/27 07:50:09;;;;;;;7.57;2.83;;;;;;;18.86;61.24;100703.19;4965797;28;20059;-42
2023/06/27 07:52:36;;;;;;;4.10;2.20;;;;;;;18.96;60.80;100690.66;4964008;28;20058;-42
2023/06/27 07:55:03;;;;;;;8.32;2.80;;;;;;;19.09;61.19;100688.59;4961240;28;20102;-41
2023/06/27 07:57:31;;;;;;;8.50;2.58;;;;;;;19.24;60.86;100682.91;4957485;28;20050;-41
2023/06/27 07:59:58;;;;;;;9.55;2.63;;;;;;;19.36;60.00;100688.72;4967123;28;20042;-42
2023/06/27 08:02:25;;;;;;;10.68;4.15;;;;;;;19.45;60.38;100688.44;4965238;28;20054;-41
2023/06/27 08:04:53;;;;;;;8.98;2.65;;;;;;;19.52;60.48;100695.22;4967314;28;20061;-42
2023/06/27 08:07:20;;;;;;;8.00;3.35;;;;;;;19.56;60.25;100697.75;4965958;28;20046;-44
2023/06/27 08:09:47;;;;;;;8.95;3.28;;;;;;;19.55;59.94;100691.63;4963237;28;20074;-40
2023/06/27 08:12:13;;;;;;;7.85;2.90;;;;;;;19.51;59.54;100696.13;4960892;28;20542;-41
2023/06/27 08:14:41;;;;;;;4.95;3.00;;;;;;;19.50;59.76;100699.69;4963538;28;20055;-42
2023/06/27 08:17:07;;;;;;;11.65;3.63;;;;;;;19.50;59.89;100698.81;4963271;28;20732;-42
2023/06/27 08:19:34;;;;;;;4.95;2.30;;;;;;;19.52;60.09;100697.84;4965089;28;20050;-41
2023/06/27 08:22:01;;;;;;;7.80;2.30;;;;;;;19.56;60.15;100692.50;4960068;28;20059;-42
2023/06/27 08:24:27;;;;;;;9.40;2.92;;;;;;;19.58;59.80;100690.69;4965593;28;20046;-42
2023/06/27 08:26:55;;;;;;;7.43;2.78;;;;;;;19.64;59.84;100685.25;4965515;28;20051;-41
2023/06/27 08:29:24;;;;;;;7.55;3.45;;;;;;;19.71;59.85;100681.53;4966656;28;20105;-41
2023/06/27 08:31:54;;;;;;;9.85;3.13;;;;;;;19.77;60.23;100681.34;4958460;28;20136;-43
2023/06/27 08:34:20;;;;;;;7.15;2.20;;;;;;;19.80;59.39;100680.38;4966503;28;20051;-42
2023/06/27 08:36:47;;;;;;;11.07;2.70;;;;;;;19.85;59.53;100688.09;4968514;28;20065;-41
2023/06/27 08:39:14;;;;;;;8.82;1.67;;;;;;;19.89;59.50;100684.47;4962102;28;20439;-42
2023/06/27 08:41:41;;;;;;;7.32;2.67;;;;;;;19.94;59.30;100689.59;4965315;28;20054;-41
2023/06/27 08:44:07;;;;;;;7.93;2.70;;;;;;;20.00;58.84;100692.91;4968063;28;20054;-42
2023/06/27 08:46:35;;;;;;;6.53;2.53;;;;;;;20.08;59.07;100683.91;4963714;28;20057;-41
2023/06/27 08:49:03;;;;;;;8.02;2.97;;;;;;;20.16;58.41;100681.91;4961708;28;20066;-42
2023/06/27 08:51:31;;;;;;;7.70;2.75;;;;;;;20.17;58.66;100678.38;4961479;28;20287;-43
2023/06/27 08:54:12;;;;;;;7.57;2.30;;;;;;;20.17;58.95;100678.38;4958638;28;20506;-41
2023/06/27 08:56:40;;;;;;;6.88;2.35;;;;;;;20.20;58.44;100680.91;4960131;28;20059;-44
2023/06/27 08:59:12;;;;;;;7.97;3.00;;;;;;;20.21;58.25;100673.88;4966841;28;20053;-42
2023/06/27 09:01:40;;;;;;;8.48;2.70;;;;;;;20.20;58.10;100672.16;4960240;28;20593;-42
2023/06/27 09:04:08;;;;;;;7.65;2.67;;;;;;;20.20;58.14;100664.25;4966494;28;20046;-41
2023/06/27 09:06:35;;;;;;;7.90;2.97;;;;;;;20.22;58.14;100675.56;4962836;28;20050;-42
2023/06/27 09:09:02;;;;;;;7.22;2.25;;;;;;;20.25;58.19;100665.84;4963011;28;20042;-44
2023/06/27 09:11:30;;;;;;;4.45;2.85;;;;;;;20.27;57.74;100664.00;4964710;28;20062;-43
2023/06/27 09:13:57;;;;;;;7.05;2.35;;;;;;;20.32;58.01;100670.88;4965484;28;20120;-42
2023/06/27 09:16:23;;;;;;;8.95;3.72;;;;;;;20.38;57.68;100665.41;4964173;28;20046;-41
2023/06/27 09:18:51;;;;;;;6.57;2.72;;;;;;;20.45;57.83;100669.56;4958223;28;20140;-42
2023/06/27 09:21:22;;;;;;;6.72;2.72;;;;;;;20.51;57.57;100664.09;4960907;28;20515;-43
2023/06/27 09:23:49;;;;;;;4.10;2.97;;;;;;;20.58;57.40;100666.50;4948985;28;20050;-43
2023/06/27 09:26:16;;;;;;;6.93;2.55;;;;;;;20.61;57.48;100655.88;4952442;28;20072;-42
2023/06/27 09:28:45;;;;;;;5.60;2.65;;;;;;;20.70;57.20;100652.91;4965564;28;20058;-40
2023/06/27 09:31:13;;;;;;;6.15;3.00;;;;;;;20.76;57.52;100650.06;4944277;28;20075;-41
2023/06/27 09:33:42;;;;;;;8.32;2.90;;;;;;;20.85;57.04;100648.00;4955387;28;20062;-43
2023/06/27 09:36:28;;;;;;;6.15;2.90;;;;;;;20.96;56.83;100651.13;4963381;28;20117;-43
2023/06/27 09:39:08;;;;;;;7.95;2.92;;;;;;;21.05;56.63;100644.69;4963937;28;20049;-43
2023/06/27 09:44:17;;;;;;;5.95;1.67;;;;;;;21.44;56.42;100651.09;5100198;27;20401;-42
2023/06/27 09:46:46;;;;;;;7.78;2.63;;;;;;;21.62;56.06;100643.41;5044179;28;20056;-42
2023/06/27 09:49:14;;;;;;;6.53;2.30;;;;;;;21.85;55.30;100645.13;5058677;28;20072;-43
2023/06/27 09:51:46;;;;;;;5.20;1.15;;;;;;;22.02;55.00;100646.25;5028278;28;20065;-44
2023/06/27 09:54:13;;;;;;;6.68;1.65;;;;;;;22.13;55.49;100643.16;5016043;28;20069;-42
2023/06/27 09:56:49;;;;;;;5.55;1.50;;;;;;;22.20;54.69;100649.88;5031509;28;20053;-42
2023/06/27 09:59:17;;;;;;;12.13;1.90;;;;;;;22.20;54.42;100641.97;5019386;28;20100;-43
2023/06/27 10:01:51;;;;;;;8.20;1.55;;;;;;;22.24;54.37;100646.19;5012407;28;20050;-43
2023/06/27 10:04:18;;;;;;;4.15;1.38;;;;;;;22.25;54.58;100639.16;5022019;28;20481;-42
2023/06/27 10:06:45;;;;;;;5.90;1.77;;;;;;;22.25;54.42;100641.78;5033806;28;20141;-42
2023/06/27 10:09:12;;;;;;;4.85;1.63;;;;;;;22.28;54.31;100636.34;5031362;28;20472;-43
2023/06/27 10:11:39;;;;;;;4.57;1.20;;;;;;;22.28;54.19;100634.59;5015255;28;20061;-42
2023/06/27 10:14:07;;;;;;;5.68;1.40;;;;;;;22.29;54.18;100638.94;5013350;28;20141;-43
2023/06/27 10:16:34;;;;;;;4.57;1.25;;;;;;;22.30;54.28;100630.13;5032598;28;20059;-44
2023/06/27 10:19:03;;;;;;;7.50;2.25;;;;;;;22.32;53.97;100627.38;5025982;28;20097;-44
2023/06/27 10:21:31;;;;;;;3.63;1.48;;;;;;;22.38;54.56;100632.41;5018926;28;20042;-43
2023/06/27 10:24:00;;;;;;;6.63;1.45;;;;;;;22.48;53.68;100630.22;5016382;28;20057;-43
2023/06/27 10:26:28;;;;;;;3.60;1.73;;;;;;;22.58;53.90;100631.59;5015835;28;20098;-42
2023/06/27 10:28:55;;;;;;;4.60;1.55;;;;;;;22.60;54.13;100648.19;5036655;28;20463;-44
2023/06/27 10:31:45;;;;;;;6.22;1.52;;;;;;;22.58;53.56;100639.50;5023604;28;20061;-43
2023/06/27 10:47:35;;;;;;;6.72;1.40;;;;;;;22.49;52.58;100642.50;5080723;27;20757;-42
2023/06/27 10:50:06;;;;;;;4.47;1.77;;;;;;;22.48;53.02;100646.06;5052461;28;20546;-43
2023/06/27 10:52:33;;;;;;;8.43;1.95;;;;;;;22.52;52.54;100647.66;5029756;28;20056;-43
2023/06/27 10:58:02;;;;;;;5.15;2.65;;;;;;;22.64;53.48;100643.66;5073298;27;20771;-42
2023/06/27 11:00:32;;;;;;;6.65;2.75;;;;;;;22.72;53.86;100648.59;5042539;28;20072;-41
2023/06/27 11:03:03;;;;;;;;;;;;;;;22.62;52.89;100644.66;5071088;28;20049;-43
2023/06/27 11:08:28;;;;;;;4.35;1.73;;;;;;;22.65;53.04;100639.22;5015756;28;20406;-42
2023/06/27 11:11:05;;;;;;;5.97;1.50;;;;;;;22.52;52.52;100639.72;5015678;28;20051;-44
2023/06/27 11:13:34;;;;;;;6.40;2.40;;;;;;;22.43;53.60;100640.97;5017044;28;20042;-41
2023/06/27 11:16:02;;;;;;;8.20;1.90;;;;;;;22.26;54.00;100633.78;5013495;28;20125;-44
2023/06/27 11:18:29;;;;;;;6.30;2.03;;;;;;;22.17;53.76;100629.78;5020467;28;20587;-42
2023/06/27 11:20:57;;;;;;;3.78;2.10;;;;;;;22.12;54.49;100630.91;5017558;28;20057;-43
2023/06/27 11:23:25;;;;;;;4.47;1.77;;;;;;;22.16;55.58;100628.03;5021183;28;20445;-41
2023/06/27 11:25:53;;;;;;;7.00;1.73;;;;;;;22.27;55.20;100630.25;5018198;28;20049;-41
2023/06/27 11:28:22;;;;;;;4.15;1.70;;;;;;;22.37;54.55;100629.84;5011218;28;20461;-42
2023/06/27 11:30:49;;;;;;;6.20;2.10;;;;;;;22.41;54.58;100626.13;5013380;28;20049;-43
2023/06/27 11:33:19;;;;;;;5.85;2.00;;;;;;;22.46;54.88;100619.75;5008997;28;20141;-42
2023/06/27 11:35:47;;;;;;;6.45;2.30;;;;;;;22.49;53.86;100618.75;5010893;28;20116;-44
2023/06/27 11:38:14;;;;;;;6.80;2.58;;;;;;;22.51;53.90;100619.53;5013096;28;20056;-42
2023/06/27 11:40:50;;;;;;;7.57;2.22;;;;;;;22.49;53.69;100624.03;5016189;28;20053;-41
2023/06/27 11:43:16;;;;;;;5.30;2.03;;;;;;;22.47;54.47;100610.88;5011124;28;20045;-44
2023/06/27 11:45:46;;;;;;;6.75;1.83;;;;;;;22.53;54.36;100604.47;5014225;28;20041;-41
2023/06/27 11:48:12;;;;;;;;;;;;;;;22.51;54.28;100601.06;5011625;28;20061;-44
2023/06/27 11:51:07;;;;;;;5.40;1.67;;;;;;;22.62;53.83;100608.53;5015420;28;20015;-41
2023/06/27 11:53:36;;;;;;;6.40;1.80;;;;;;;22.71;53.74;100604.63;4996976;28;20045;-44
2023/06/27 11:56:04;;;;;;;9.02;2.40;;;;;;;22.77;53.40;100595.56;5012573;28;20572;-43
2023/06/27 11:58:37;;;;;;;7.60;1.83;;;;;;;22.79;53.53;100599.84;4993938;28;20088;-40